Terminal Aerodrome Forecast
Issued by NWS

Home | Current Version | Previous Version | Graphics & Text | Print | Product List | Glossary Off
Versions: 1 2 3 4 5 6 7 8 9 10 11 12 13 14 15 16 17 18 19 20 21 22 23 24 25 26 27 28 29 30

000
FTUS43 KDDC 231736
TAFHYS
TAF
KHYS 231736Z 2318/2418 14010KT P6SM BKN050
     FM232200 VRB06KT P6SM SCT150
     FM240700 07010KT P6SM VCTS BKN070CB OVC200=

USA.gov is the U.S. government's official web portal to all federal, state and local government web resources and services.